Time;durP1;ratioP1;P1;durP2;ratioP2;P2;SDS_P1;SDS_P2;PMS_P1;PMS_P2;Temp;Humidity;BMP_temperature;BMP_pressure;BME280_temperature;BME280_humidity;BME280_pressure;Samples;Min_cycle;Max_cycle;Signal;HPM_P1;HPM_P2
2022/12/28 00:01:50;;;;;;;1.98;0.60;;;;;;;18.63;36.68;101602.81;16127623;19;129783;-49
2022/12/28 00:07:12;;;;;;;1.63;0.70;;;;;;;18.58;36.58;101581.34;16126243;19;128879;-46
2022/12/28 00:12:34;;;;;;;1.55;0.57;;;;;;;18.56;36.58;101571.56;16127244;19;130306;-50
2022/12/28 00:17:56;;;;;;;1.80;0.75;;;;;;;18.53;36.90;101567.31;16123358;19;129795;-48
2022/12/28 00:23:18;;;;;;;1.55;0.70;;;;;;;18.51;36.60;101557.53;16124279;19;131209;-45
2022/12/28 00:28:40;;;;;;;1.42;0.68;;;;;;;18.49;36.99;101548.59;16124300;19;130392;-48
2022/12/28 00:34:03;;;;;;;1.15;0.60;;;;;;;18.46;36.70;101542.44;16124004;19;129630;-47
2022/12/28 00:39:25;;;;;;;2.08;0.57;;;;;;;18.44;36.73;101533.53;16122866;19;130567;-50
2022/12/28 00:44:46;;;;;;;0.98;0.50;;;;;;;18.42;36.93;101513.53;16123472;19;129881;-49
2022/12/28 00:50:09;;;;;;;1.25;0.57;;;;;;;18.39;36.89;101507.56;16124268;19;129427;-46
2022/12/28 00:55:34;;;;;;;1.48;0.50;;;;;;;18.38;36.65;101511.41;16122588;19;132419;-49
2022/12/28 01:00:56;;;;;;;0.82;0.40;;;;;;;18.34;36.62;101499.09;16126774;19;129582;-46
2022/12/28 01:06:19;;;;;;;0.77;0.40;;;;;;;18.33;37.04;101492.72;16124444;19;129730;-46
2022/12/28 01:11:41;;;;;;;0.70;0.30;;;;;;;18.30;36.88;101482.09;16122683;19;131327;-47
2022/12/28 01:17:03;;;;;;;0.50;0.40;;;;;;;18.29;37.02;101470.16;16122010;19;129520;-45
2022/12/28 01:22:26;;;;;;;0.85;0.50;;;;;;;18.27;36.65;101466.78;16120281;19;129986;-48
2022/12/28 01:27:48;;;;;;;1.95;0.63;;;;;;;18.25;37.02;101457.00;16122316;19;129625;-48
2022/12/28 01:33:10;;;;;;;2.05;0.40;;;;;;;18.23;36.66;101453.63;16119775;19;131616;-49
2022/12/28 01:38:32;;;;;;;1.30;0.43;;;;;;;18.21;37.08;101434.47;16115169;19;130731;-50
2022/12/28 01:43:53;;;;;;;2.03;0.40;;;;;;;18.19;36.62;101433.84;16122176;19;130013;-46
2022/12/28 01:49:20;;;;;;;1.10;0.38;;;;;;;18.18;37.00;101426.63;16117980;19;129849;-49
2022/12/28 01:54:50;;;;;;;0.65;0.30;;;;;;;18.17;37.06;101413.00;16121977;19;129005;-47
2022/12/28 02:00:14;;;;;;;1.67;0.40;;;;;;;18.15;36.60;101408.53;16119293;19;128917;-46
2022/12/28 02:05:42;;;;;;;0.80;0.35;;;;;;;18.14;36.73;101394.94;16121828;19;129975;-48
2022/12/28 02:11:06;;;;;;;2.85;0.40;;;;;;;18.13;36.61;101393.25;16120915;19;129708;-51
2022/12/28 02:16:27;;;;;;;1.38;0.50;;;;;;;18.10;36.84;101383.47;16115388;19;132011;-49
2022/12/28 02:22:17;;;;;;;0.63;0.40;;;;;;;18.10;36.79;101377.94;16118643;19;129347;-47
2022/12/28 02:27:57;;;;;;;0.40;0.22;;;;;;;18.08;36.67;101369.03;16120473;19;130147;-48
2022/12/28 02:33:28;;;;;;;0.77;0.40;;;;;;;18.06;36.76;101365.66;16118909;19;130205;-47
2022/12/28 02:38:49;;;;;;;3.35;0.40;;;;;;;18.03;36.70;101366.09;16119456;19;129165;-47
2022/12/28 02:44:11;;;;;;;0.95;0.52;;;;;;;18.03;36.65;101337.59;16118629;19;129560;-52
2022/12/28 03:00:57;;;;;;;0.70;0.47;;;;;;;17.98;36.62;101310.56;16111910;19;129325;-49
2022/12/28 03:12:18;;;;;;;1.17;0.32;;;;;;;17.97;36.93;101295.91;16117007;19;131459;-48
2022/12/28 03:34:47;;;;;;;1.08;0.40;;;;;;;17.90;36.56;101284.06;16113670;19;130602;-48
2022/12/28 03:40:25;;;;;;;0.80;0.35;;;;;;;17.91;36.90;101284.91;16112564;19;129541;-47
2022/12/28 03:45:56;;;;;;;0.60;0.30;;;;;;;17.89;36.61;101276.84;16113747;19;129850;-50
2022/12/28 03:51:22;;;;;;;2.95;0.50;;;;;;;17.89;36.58;101267.69;16113996;19;129238;-48
2022/12/28 03:56:50;;;;;;;1.98;0.40;;;;;;;17.88;36.81;101258.53;16111872;19;129714;-46
2022/12/28 04:02:11;;;;;;;2.58;0.50;;;;;;;17.85;37.02;101243.22;16120967;19;129701;-51
2022/12/28 04:07:34;;;;;;;1.02;0.50;;;;;;;17.85;37.02;101245.16;16126168;19;130294;-47
2022/12/28 04:12:55;;;;;;;1.15;0.38;;;;;;;17.84;36.94;101241.56;16125776;19;129528;-49
2022/12/28 04:18:17;;;;;;;2.72;0.40;;;;;;;17.83;36.93;101228.81;16126648;19;130854;-47
2022/12/28 04:23:39;;;;;;;1.92;0.50;;;;;;;17.83;36.89;101223.28;16125048;19;129759;-45
2022/12/28 04:29:01;;;;;;;1.30;0.50;;;;;;;17.82;36.94;101232.66;16127640;19;130758;-48
2022/12/28 04:34:23;;;;;;;3.42;0.60;;;;;;;17.81;37.05;101219.88;16123561;19;129789;-45
2022/12/28 04:39:45;;;;;;;1.10;0.65;;;;;;;17.80;36.63;101220.97;16126801;19;130043;-48
2022/12/28 04:45:17;;;;;;;3.03;0.80;;;;;;;17.80;36.66;101203.50;16122506;19;129788;-51
2022/12/28 04:50:42;;;;;;;1.95;0.47;;;;;;;17.78;37.07;101203.75;16125121;19;130731;-46
2022/12/28 04:56:08;;;;;;;0.43;0.30;;;;;;;17.78;36.90;101195.44;16123095;19;129643;-47
2022/12/28 05:01:30;;;;;;;1.10;0.40;;;;;;;17.77;37.01;101196.53;16121508;19;129625;-48
2022/12/28 05:06:52;;;;;;;1.40;0.60;;;;;;;17.76;36.96;101211.44;16123374;19;130142;-50
2022/12/28 05:12:14;;;;;;;2.33;0.50;;;;;;;17.76;36.76;101214.19;16119409;19;129072;-49
2022/12/28 05:17:36;;;;;;;2.00;0.68;;;;;;;17.75;36.79;101212.50;16123427;19;129436;-49
2022/12/28 05:22:58;;;;;;;0.77;0.38;;;;;;;17.74;37.17;101204.44;16123061;19;129477;-46
2022/12/28 05:28:19;;;;;;;0.55;0.43;;;;;;;17.73;36.85;101211.88;16122245;19;130149;-50
2022/12/28 05:33:42;;;;;;;0.50;0.30;;;;;;;17.72;36.79;101210.22;16123564;19;129028;-46
2022/12/28 05:39:04;;;;;;;0.80;0.40;;;;;;;17.72;36.86;101220.44;16120823;19;130699;-45
2022/12/28 05:44:26;;;;;;;0.50;0.30;;;;;;;17.71;37.24;101200.22;16121581;19;129163;-48
2022/12/28 05:49:48;;;;;;;1.45;0.43;;;;;;;17.70;37.15;101206.84;16121585;19;130243;-49
2022/12/28 05:55:10;;;;;;;0.68;0.30;;;;;;;17.69;37.27;101199.63;16120279;19;129889;-50
2022/12/28 06:00:32;;;;;;;0.38;0.20;;;;;;;17.68;37.45;101204.28;16121222;19;130891;-47
2022/12/28 06:05:53;;;;;;;1.25;0.50;;;;;;;17.70;37.41;101201.31;16121357;19;129654;-49
2022/12/28 06:11:18;;;;;;;1.88;0.43;;;;;;;17.91;36.94;101186.09;16118445;19;129058;-47
2022/12/28 06:16:40;;;;;;;0.90;0.33;;;;;;;18.34;36.41;101189.69;16121564;19;129558;-46
2022/12/28 06:22:02;;;;;;;1.10;0.25;;;;;;;18.85;36.10;101186.53;16117818;19;132369;-49
2022/12/28 06:27:27;;;;;;;5.15;0.50;;;;;;;19.21;35.74;101184.59;16109803;19;130337;-50
2022/12/28 06:32:49;;;;;;;6.70;0.70;;;;;;;19.41;35.68;101180.56;16113543;19;130597;-49
2022/12/28 06:38:10;;;;;;;5.38;0.63;;;;;;;19.56;35.46;101172.56;16113043;19;129141;-47
2022/12/28 06:43:34;;;;;;;4.07;0.47;;;;;;;19.72;35.21;101181.19;16116280;19;129302;-53
2022/12/28 06:48:56;;;;;;;1.75;0.40;;;;;;;19.76;34.75;101172.09;16115560;19;129648;-47
2022/12/28 06:54:18;;;;;;;1.85;0.40;;;;;;;19.74;35.00;101167.91;16114502;19;129681;-50
2022/12/28 06:59:39;;;;;;;0.80;0.22;;;;;;;19.64;35.15;101166.63;16116829;19;129749;-45
2022/12/28 07:05:01;;;;;;;2.17;0.40;;;;;;;19.53;35.51;101156.41;16117319;19;129816;-51
2022/12/28 07:10:23;;;;;;;2.70;0.40;;;;;;;19.43;35.68;101147.88;16114678;19;130049;-50
2022/12/28 07:15:45;;;;;;;1.73;0.50;;;;;;;19.30;35.81;101147.06;16115107;19;130613;-50
2022/12/28 07:21:11;;;;;;;4.88;0.63;;;;;;;19.20;35.88;101142.13;16112299;19;130794;-50
2022/12/28 07:26:35;;;;;;;1.65;0.40;;;;;;;19.10;36.14;101125.28;16116220;19;129493;-47
2022/12/28 07:31:57;;;;;;;3.08;0.40;;;;;;;19.00;36.21;101125.88;16117219;19;129881;-46
2022/12/28 07:37:18;;;;;;;1.23;0.25;;;;;;;18.90;36.10;101129.25;16131796;19;130451;-51
2022/12/28 07:42:40;;;;;;;1.67;0.35;;;;;;;18.83;36.45;101125.78;16131318;19;129402;-46
2022/12/28 07:48:02;;;;;;;1.42;0.68;;;;;;;18.76;36.46;101131.47;16131920;19;128847;-47
2022/12/28 07:53:24;;;;;;;1.08;0.32;;;;;;;18.72;36.74;101133.03;16126162;19;129293;-49
2022/12/28 07:58:50;;;;;;;3.60;0.60;;;;;;;18.77;36.62;101122.06;16128473;19;129036;-46
2022/12/28 08:04:13;;;;;;;2.28;0.43;;;;;;;18.89;36.43;101126.75;16127721;19;129986;-49
2022/12/28 08:09:34;;;;;;;3.22;0.40;;;;;;;19.02;36.33;101123.72;16126110;19;129573;-48
2022/12/28 08:14:59;;;;;;;1.38;0.30;;;;;;;19.13;35.93;101116.47;16126084;19;129620;-51
2022/12/28 08:20:21;;;;;;;1.40;0.40;;;;;;;19.24;36.19;101114.75;16126927;19;129460;-49
2022/12/28 08:25:43;;;;;;;2.22;0.47;;;;;;;19.34;35.83;101114.13;16126029;19;129808;-46
2022/12/28 08:31:15;;;;;;;0.85;0.35;;;;;;;19.44;35.86;101116.28;16123753;19;129116;-49
2022/12/28 08:36:37;;;;;;;1.83;0.45;;;;;;;19.47;35.89;101111.06;16126161;19;130579;-49
2022/12/28 08:41:58;;;;;;;1.02;0.20;;;;;;;19.67;35.33;101118.94;16125474;19;131067;-53
2022/12/28 08:47:20;;;;;;;3.58;0.65;;;;;;;19.93;35.36;101118.56;16118656;19;130553;-48
2022/12/28 08:52:42;;;;;;;2.80;0.40;;;;;;;20.12;35.26;101120.03;16126624;19;129563;-46
2022/12/28 08:58:04;;;;;;;3.10;0.40;;;;;;;20.26;35.10;101114.13;16123821;19;130023;-50
2022/12/28 09:03:26;;;;;;;6.95;0.50;;;;;;;20.36;35.02;101119.03;16122692;19;129953;-46
2022/12/28 09:08:49;;;;;;;1.27;0.40;;;;;;;20.42;34.90;101110.53;16123919;19;129708;-51
2022/12/28 09:14:26;;;;;;;3.33;0.45;;;;;;;20.45;34.46;101106.38;16119687;19;131329;-51
2022/12/28 09:19:47;;;;;;;3.67;0.50;;;;;;;20.45;34.82;101104.47;16124466;19;130528;-52
2022/12/28 09:25:09;;;;;;;3.47;0.50;;;;;;;20.44;34.68;101113.03;16127480;19;129161;-51
2022/12/28 09:30:31;;;;;;;5.95;0.63;;;;;;;20.39;34.77;101111.03;16123616;19;130835;-51
2022/12/28 09:35:57;;;;;;;0.80;0.22;;;;;;;20.32;34.74;101118.69;16120103;19;131376;-48
2022/12/28 09:41:28;;;;;;;2.63;0.43;;;;;;;20.20;34.92;101107.66;16121266;19;129321;-47
2022/12/28 09:47:16;;;;;;;0.80;0.40;;;;;;;20.08;35.11;101115.22;16128009;19;129896;-51
2022/12/28 09:52:43;;;;;;;1.92;0.50;;;;;;;19.95;35.22;101108.88;16124263;19;130425;-49
2022/12/28 09:58:14;;;;;;;2.97;0.70;;;;;;;19.83;35.54;101110.88;16124980;19;129722;-50
2022/12/28 10:03:41;;;;;;;1.38;0.32;;;;;;;19.73;35.33;101105.16;16123176;19;129347;-48
2022/12/28 10:09:10;;;;;;;3.05;0.40;;;;;;;19.62;35.62;101098.59;16129154;19;128985;-50
2022/12/28 10:14:34;;;;;;;1.83;0.43;;;;;;;19.54;35.82;101102.59;16119138;19;132537;-48
2022/12/28 10:19:58;;;;;;;1.23;0.30;;;;;;;19.44;35.86;101096.84;16124118;19;130074;-51
2022/12/28 10:25:25;;;;;;;2.03;0.45;;;;;;;19.35;36.10;101094.47;16125566;19;129631;-48
2022/12/28 10:31:05;;;;;;;3.55;0.47;;;;;;;19.28;36.34;101079.91;16123999;19;129522;-49
2022/12/28 10:36:33;;;;;;;1.10;0.35;;;;;;;19.18;36.00;101088.00;16114794;19;130119;-49
2022/12/28 10:41:59;;;;;;;1.08;0.50;;;;;;;19.11;36.44;101084.50;16114255;19;129861;-49
2022/12/28 10:47:48;;;;;;;3.05;0.40;;;;;;;19.05;36.49;101078.88;16117461;19;129443;-50
2022/12/28 10:53:18;;;;;;;1.08;0.40;;;;;;;18.99;36.56;101073.47;16120221;19;129616;-52
2022/12/28 10:58:45;;;;;;;1.65;0.40;;;;;;;18.90;36.77;101082.13;16120438;19;129623;-50
2022/12/28 11:04:17;;;;;;;1.88;0.50;;;;;;;18.88;36.92;101072.38;16117100;19;129739;-50
2022/12/28 11:09:39;;;;;;;2.55;0.52;;;;;;;18.83;36.74;101063.97;16127297;19;130600;-52
2022/12/28 11:15:01;;;;;;;2.45;0.47;;;;;;;18.79;36.94;101040.59;16127617;19;131640;-45
2022/12/28 11:20:35;;;;;;;2.03;0.82;;;;;;;18.79;36.95;101037.84;16131009;19;130183;-50
2022/12/28 11:25:57;;;;;;;2.65;0.55;;;;;;;18.74;36.90;101019.16;16126467;19;129731;-51
2022/12/28 11:31:29;;;;;;;7.03;0.68;;;;;;;18.71;37.32;101001.06;16131877;19;130377;-54
2022/12/28 11:36:51;;;;;;;2.03;0.60;;;;;;;18.71;37.37;100994.72;16130561;19;129115;-50
2022/12/28 11:42:36;;;;;;;4.05;0.80;;;;;;;18.72;37.62;100986.13;16126868;19;129495;-54
2022/12/28 11:48:44;;;;;;;6.00;0.60;;;;;;;18.74;37.46;100977.59;16128432;19;129848;-48
2022/12/28 11:54:36;;;;;;;1.98;0.60;;;;;;;18.76;37.51;100970.72;16127633;19;132577;-50
2022/12/28 12:00:46;;;;;;;1.90;0.60;;;;;;;18.91;37.47;100961.03;16125967;19;129964;-51
2022/12/28 12:06:08;;;;;;;3.65;0.63;;;;;;;19.10;36.74;100963.56;16128502;19;131159;-51
2022/12/28 12:11:32;;;;;;;3.28;0.80;;;;;;;19.28;36.63;100938.44;16126815;19;129789;-50
2022/12/28 12:17:04;;;;;;;8.35;1.60;;;;;;;19.45;36.41;100923.72;16132245;19;129760;-53
2022/12/28 12:23:06;;;;;;;6.50;1.20;;;;;;;19.59;36.67;100911.19;16125811;19;130079;-49
2022/12/28 12:28:32;;;;;;;6.10;1.20;;;;;;;19.71;36.39;100910.25;16127880;19;129569;-52
2022/12/28 12:33:59;;;;;;;7.05;1.10;;;;;;;19.85;36.41;100894.94;16127501;19;130798;-52
2022/12/28 12:39:59;;;;;;;3.97;1.10;;;;;;;20.08;36.24;100882.78;16129707;19;129098;-53
2022/12/28 12:45:52;;;;;;;4.40;0.95;;;;;;;20.29;36.14;100875.56;16126517;19;129074;-51
2022/12/28 12:51:29;;;;;;;6.43;1.20;;;;;;;20.37;35.99;100865.91;16126273;19;129385;-51
2022/12/28 12:56:57;;;;;;;4.72;0.90;;;;;;;20.37;35.64;100849.25;16125590;19;129498;-50
2022/12/28 13:02:22;;;;;;;8.48;1.08;;;;;;;20.32;36.20;100840.00;16122726;19;130817;-54
2022/12/28 13:07:44;;;;;;;16.97;1.70;;;;;;;20.25;36.23;100829.94;16121961;19;130340;-52
2022/12/28 13:13:06;;;;;;;11.15;1.30;;;;;;;20.19;37.20;100811.53;16122400;19;129480;-52
2022/12/28 13:18:28;;;;;;;4.63;1.05;;;;;;;20.18;37.81;100798.78;16112408;19;129516;-51
2022/12/28 13:24:29;;;;;;;6.13;0.77;;;;;;;20.14;38.48;100789.28;16126358;19;131179;-52
2022/12/28 13:29:53;;;;;;;7.35;0.98;;;;;;;20.03;39.15;100757.75;16124151;19;129540;-55
2022/12/28 13:35:17;;;;;;;5.00;1.02;;;;;;;19.95;39.41;100727.66;16129267;19;129933;-53
2022/12/28 13:40:47;;;;;;;4.07;0.75;;;;;;;19.84;39.96;100726.69;16128722;19;130210;-49
2022/12/28 13:46:14;;;;;;;4.53;0.95;;;;;;;19.75;39.98;100725.47;16118129;19;130294;-55
2022/12/28 13:51:38;;;;;;;4.40;0.80;;;;;;;19.62;40.02;100710.88;16122951;19;130662;-54
2022/12/28 13:57:00;;;;;;;4.00;1.13;;;;;;;19.52;39.92;100696.88;16123833;19;129797;-51
2022/12/28 14:02:42;;;;;;;7.57;0.93;;;;;;;19.43;40.28;100690.13;16124211;19;130514;-51
2022/12/28 14:08:05;;;;;;;2.15;0.70;;;;;;;19.35;40.33;100677.53;16124389;19;129866;-55
2022/12/28 14:13:32;;;;;;;4.30;0.80;;;;;;;19.27;40.02;100670.50;16125077;19;129923;-52
2022/12/28 14:18:54;;;;;;;4.43;0.75;;;;;;;19.19;40.11;100657.06;16127303;19;130841;-53
2022/12/28 14:24:17;;;;;;;6.43;0.95;;;;;;;19.13;40.46;100649.75;16121656;19;129173;-51
2022/12/28 14:29:39;;;;;;;2.55;0.73;;;;;;;19.06;40.40;100633.28;16125132;19;129933;-50
2022/12/28 14:35:01;;;;;;;9.48;0.68;;;;;;;19.00;40.28;100614.94;16122747;19;130555;-52
2022/12/28 14:40:35;;;;;;;4.50;0.82;;;;;;;18.94;40.33;100610.38;16122057;19;131701;-51
2022/12/28 14:46:12;;;;;;;2.03;0.80;;;;;;;18.88;40.51;100601.16;16120011;19;129772;-53
2022/12/28 14:51:34;;;;;;;3.40;0.80;;;;;;;18.84;40.65;100591.69;16120328;19;129066;-54
2022/12/28 14:57:33;;;;;;;2.03;0.65;;;;;;;18.89;41.27;100587.03;16121770;19;131248;-51
2022/12/28 15:02:56;;;;;;;2.30;0.50;;;;;;;19.01;40.99;100578.63;16121542;19;130833;-53
2022/12/28 15:08:21;;;;;;;3.13;0.80;;;;;;;19.13;40.56;100570.19;16120325;19;129858;-51
2022/12/28 15:13:43;;;;;;;5.38;1.08;;;;;;;19.24;40.46;100557.28;16119878;19;129500;-53
2022/12/28 15:19:05;;;;;;;2.17;0.60;;;;;;;19.33;40.39;100554.91;16121297;19;129581;-51
2022/12/28 15:24:27;;;;;;;1.65;0.50;;;;;;;19.40;40.55;100551.94;16116543;19;129378;-52
2022/12/28 15:29:56;;;;;;;1.90;0.60;;;;;;;19.42;40.54;100538.63;16116087;19;129107;-50
2022/12/28 15:35:27;;;;;;;2.15;0.60;;;;;;;19.37;40.63;100531.94;16118276;19;130408;-47
2022/12/28 15:40:53;;;;;;;1.35;0.50;;;;;;;19.33;40.26;100522.44;16113281;19;129985;-53
2022/12/28 15:46:15;;;;;;;6.47;0.77;;;;;;;19.25;40.42;100517.38;16115002;19;129030;-54
2022/12/28 15:51:39;;;;;;;4.22;0.70;;;;;;;19.19;40.41;100508.13;16119023;19;129959;-52
2022/12/28 15:57:01;;;;;;;14.18;1.00;;;;;;;19.13;40.84;100480.59;16132361;19;129557;-51
2022/12/28 16:02:23;;;;;;;5.65;0.90;;;;;;;19.07;40.33;100476.94;16125630;19;131812;-51
2022/12/28 16:07:45;;;;;;;4.57;0.63;;;;;;;19.02;40.69;100463.00;16127869;19;129220;-51
2022/12/28 16:13:07;;;;;;;8.90;1.02;;;;;;;18.96;40.62;100452.97;16127942;19;129433;-54
2022/12/28 16:18:28;;;;;;;2.85;0.60;;;;;;;18.90;40.78;100435.44;16127201;19;130138;-51
2022/12/28 16:23:51;;;;;;;5.55;0.82;;;;;;;18.86;40.94;100437.06;16122647;19;130355;-51
2022/12/28 16:29:13;;;;;;;3.60;0.93;;;;;;;18.82;40.60;100430.38;16127219;19;129914;-51
2022/12/28 16:34:34;;;;;;;3.05;0.60;;;;;;;18.77;40.56;100420.91;16125968;19;129666;-52
2022/12/28 16:39:56;;;;;;;4.50;0.75;;;;;;;18.74;40.95;100418.63;16127388;19;130060;-50
2022/12/28 16:45:18;;;;;;;6.38;1.10;;;;;;;18.73;40.99;100407.81;16125792;19;130079;-51
2022/12/28 16:50:41;;;;;;;8.07;0.70;;;;;;;18.68;40.77;100400.28;16128922;19;129990;-53
2022/12/28 16:56:04;;;;;;;4.20;0.75;;;;;;;18.66;41.11;100390.53;16120645;19;131389;-53
2022/12/28 17:01:26;;;;;;;8.85;0.88;;;;;;;18.63;41.00;100380.00;16122434;19;130139;-50
2022/12/28 17:06:49;;;;;;;6.88;1.10;;;;;;;18.60;41.31;100367.50;16122077;19;129081;-54
2022/12/28 17:12:11;;;;;;;3.88;0.60;;;;;;;18.58;41.32;100362.22;16124856;19;130963;-52
2022/12/28 17:17:33;;;;;;;3.85;0.70;;;;;;;18.60;41.48;100351.72;16120631;19;129945;-52
2022/12/28 17:22:55;;;;;;;3.10;0.50;;;;;;;18.60;41.60;100337.88;16122399;19;130873;-54
2022/12/28 17:28:17;;;;;;;9.40;1.17;;;;;;;18.62;41.79;100348.69;16118661;19;129143;-51
2022/12/28 17:33:42;;;;;;;1.70;0.47;;;;;;;18.63;42.01;100333.72;16119550;19;129699;-53
2022/12/28 17:39:04;;;;;;;5.55;1.10;;;;;;;18.65;42.16;100330.69;16122448;19;130737;-51
2022/12/28 17:44:26;;;;;;;3.00;0.90;;;;;;;18.67;42.19;100321.03;16121230;19;130815;-53
2022/12/28 17:49:47;;;;;;;4.70;0.68;;;;;;;18.70;42.22;100319.66;16122071;19;131289;-53
2022/12/28 17:55:10;;;;;;;7.63;1.27;;;;;;;18.70;42.29;100312.22;16122400;19;132570;-48
2022/12/28 18:00:32;;;;;;;9.07;0.73;;;;;;;18.71;42.27;100307.50;16122430;19;129135;-51
2022/12/28 18:05:53;;;;;;;9.45;0.98;;;;;;;18.71;42.11;100291.69;16114384;19;129891;-54
2022/12/28 18:11:15;;;;;;;9.60;0.93;;;;;;;18.80;42.12;100297.59;16096890;19;131324;-50
2022/12/28 18:16:38;;;;;;;10.75;0.90;;;;;;;19.08;41.88;100302.00;16102720;19;134874;-53
2022/12/28 18:22:00;;;;;;;12.02;1.10;;;;;;;19.46;41.25;100302.03;16109194;19;130724;-53
2022/12/28 18:27:21;;;;;;;6.57;0.77;;;;;;;19.86;41.15;100288.66;16118344;19;130043;-49
2022/12/28 18:32:43;;;;;;;6.88;1.00;;;;;;;20.13;40.95;100291.31;16120664;19;130909;-50
2022/12/28 18:38:05;;;;;;;17.60;1.30;;;;;;;20.35;40.22;100269.97;16120539;19;131099;-53
2022/12/28 18:43:27;;;;;;;5.32;1.25;;;;;;;20.42;40.28;100268.63;16117363;19;130910;-47
2022/12/28 18:48:49;;;;;;;9.60;1.52;;;;;;;20.43;40.21;100261.13;16117462;19;129174;-52
2022/12/28 18:54:11;;;;;;;6.75;1.10;;;;;;;20.40;39.89;100253.34;16118250;19;130136;-52
2022/12/28 18:59:33;;;;;;;4.40;0.73;;;;;;;20.35;39.79;100262.50;16114544;19;129746;-53
2022/12/28 19:04:54;;;;;;;3.60;0.68;;;;;;;20.27;40.32;100261.09;16115313;19;130826;-53
2022/12/28 19:10:16;;;;;;;4.75;0.80;;;;;;;20.21;40.05;100250.25;16085784;19;130210;-52
2022/12/28 19:15:38;;;;;;;5.70;0.60;;;;;;;20.14;40.39;100248.53;16116027;19;129190;-51
2022/12/28 19:21:25;;;;;;;3.10;0.63;;;;;;;20.20;40.22;100249.38;16116195;19;132652;-51
2022/12/28 19:26:47;;;;;;;2.13;0.52;;;;;;;20.30;40.34;100256.91;16113542;19;129133;-53
2022/12/28 19:32:09;;;;;;;2.17;0.70;;;;;;;20.38;40.16;100245.25;16129438;19;129103;-53
2022/12/28 19:37:31;;;;;;;2.85;0.60;;;;;;;20.44;40.16;100240.53;16128198;19;130975;-51
2022/12/28 19:42:52;;;;;;;2.20;0.50;;;;;;;20.57;39.85;100237.22;16128841;19;132044;-52
2022/12/28 19:48:14;;;;;;;1.65;0.50;;;;;;;20.82;39.24;100238.38;16127499;19;129523;-51
2022/12/28 19:53:36;;;;;;;5.85;0.57;;;;;;;21.14;38.93;100241.97;16127557;19;130059;-53
2022/12/28 19:58:59;;;;;;;2.35;0.60;;;;;;;21.44;38.84;100240.25;16125479;19;130072;-53
2022/12/28 20:04:27;;;;;;;2.42;0.40;;;;;;;21.68;38.44;100218.22;16122246;19;130814;-54
2022/12/28 20:09:52;;;;;;;3.33;0.60;;;;;;;21.87;38.19;100212.03;16125578;19;130969;-53
2022/12/28 20:15:13;;;;;;;3.97;0.73;;;;;;;22.03;38.33;100204.41;16125387;19;129042;-54
2022/12/28 20:20:35;;;;;;;3.15;1.00;;;;;;;22.11;37.98;100206.59;16120870;19;130260;-52
2022/12/28 20:26:18;;;;;;;12.95;1.00;;;;;;;22.21;37.88;100194.59;16121562;19;129460;-53
2022/12/28 20:31:40;;;;;;;17.67;1.20;;;;;;;22.31;37.95;100188.94;16124461;19;129911;-52
2022/12/28 20:37:02;;;;;;;9.93;1.13;;;;;;;22.41;37.45;100186.06;16122351;19;136084;-51
2022/12/28 20:48:04;;;;;;;7.03;0.80;;;;;;;22.50;37.72;100185.47;16121872;19;129425;-49
2022/12/28 20:53:27;;;;;;;9.95;1.27;;;;;;;22.49;37.80;100178.22;16122220;19;130801;-50
2022/12/28 20:58:48;;;;;;;8.18;0.93;;;;;;;22.43;37.91;100178.25;16119978;19;129617;-52
2022/12/28 21:04:10;;;;;;;3.70;0.50;;;;;;;22.36;37.62;100177.75;16118834;19;129954;-51
2022/12/28 21:09:32;;;;;;;1.83;0.40;;;;;;;22.26;37.74;100166.69;16119254;19;129622;-51
2022/12/28 21:14:54;;;;;;;10.73;1.15;;;;;;;22.12;38.25;100152.53;16121859;19;131324;-48
2022/12/28 21:20:16;;;;;;;7.10;0.75;;;;;;;22.00;38.23;100157.63;16120171;19;130639;-50
2022/12/28 21:25:37;;;;;;;13.05;1.10;;;;;;;21.81;38.27;100164.69;16109814;19;138307;-47
2022/12/28 21:31:02;;;;;;;16.13;1.25;;;;;;;21.67;38.52;100158.09;16118559;19;130045;-50
2022/12/28 21:36:24;;;;;;;11.20;0.90;;;;;;;21.53;38.52;100157.88;16118861;19;130425;-49
2022/12/28 21:41:49;;;;;;;7.43;0.70;;;;;;;21.41;38.83;100144.28;16122005;19;131572;-53
2022/12/28 21:47:11;;;;;;;6.10;0.80;;;;;;;21.29;39.07;100139.03;16118706;19;131233;-46
2022/12/28 21:52:34;;;;;;;10.23;0.60;;;;;;;21.19;39.06;100130.72;16117580;19;129720;-53
2022/12/28 21:57:56;;;;;;;5.25;1.10;;;;;;;21.09;39.57;100130.75;16117364;19;129726;-50
2022/12/28 22:14:40;;;;;;;4.82;0.60;;;;;;;20.76;39.43;100117.19;16120616;19;129055;-50
2022/12/28 22:20:02;;;;;;;2.80;0.70;;;;;;;20.70;39.71;100118.28;16117553;19;128981;-48
2022/12/28 22:25:25;;;;;;;1.73;0.43;;;;;;;20.64;39.98;100133.31;16115295;19;130421;-49
2022/12/28 22:30:47;;;;;;;5.10;0.77;;;;;;;20.57;39.94;100122.47;16119416;19;130329;-47
2022/12/28 22:36:14;;;;;;;1.48;0.50;;;;;;;20.52;40.24;100116.91;16116557;19;130913;-50
2022/12/28 22:41:36;;;;;;;6.13;0.50;;;;;;;20.48;39.92;100102.75;16112028;19;130366;-48
2022/12/28 22:46:59;;;;;;;10.95;0.60;;;;;;;20.41;39.74;100094.69;16110049;19;129447;-50
2022/12/28 22:52:21;;;;;;;5.45;0.70;;;;;;;20.35;40.11;100078.31;16109488;19;130211;-48
2022/12/28 22:57:43;;;;;;;5.32;0.55;;;;;;;20.26;39.90;100076.09;16118931;19;131483;-50
2022/12/28 23:03:05;;;;;;;4.00;0.43;;;;;;;20.18;39.92;100079.44;16122384;19;129100;-49
2022/12/28 23:08:27;;;;;;;2.47;0.50;;;;;;;20.12;39.88;100080.53;16133453;19;129762;-50
2022/12/28 23:13:49;;;;;;;2.30;0.50;;;;;;;20.05;39.90;100071.66;16128666;19;129620;-50
2022/12/28 23:30:32;;;;;;;2.35;0.45;;;;;;;19.83;39.83;100064.38;16123980;19;129573;-51
2022/12/28 23:35:54;;;;;;;1.98;0.60;;;;;;;19.78;39.53;100054.09;16129121;19;129184;-51
2022/12/28 23:46:56;;;;;;;3.60;0.65;;;;;;;19.67;40.03;100031.06;16129003;19;129658;-53
2022/12/28 23:52:20;;;;;;;0.50;0.30;;;;;;;19.64;39.63;100012.19;16126909;19;130475;-52
2022/12/28 23:57:46;;;;;;;0.95;0.40;;;;;;;19.61;39.65;100009.97;16128366;19;129050;-51
